createdAt,value
2018-02-10T00:00:37.117Z,0.50
2018-02-10T00:03:04.683Z,0.51
2018-02-10T00:05:32.291Z,0.44
2018-02-10T00:07:59.856Z,0.44
2018-02-10T00:10:27.577Z,0.48
2018-02-10T00:12:55.181Z,0.57
2018-02-10T00:15:22.750Z,0.46
2018-02-10T00:17:50.323Z,0.44
2018-02-10T00:20:17.908Z,0.46
2018-02-10T00:22:48.408Z,0.63
2018-02-10T00:25:15.968Z,0.67
2018-02-10T00:27:43.565Z,0.64
2018-02-10T00:30:11.132Z,0.62
2018-02-10T00:32:38.699Z,0.57
2018-02-10T00:35:06.291Z,0.49
2018-02-10T00:37:33.838Z,0.39
2018-02-10T00:40:01.399Z,0.37
2018-02-10T00:42:29.095Z,0.34
2018-02-10T00:44:56.655Z,0.35
2018-02-10T00:47:24.238Z,0.41
2018-02-10T00:49:51.856Z,0.56
2018-02-10T00:52:19.424Z,0.60
2018-02-10T00:54:47.160Z,0.54
2018-02-10T00:57:14.763Z,0.53
2018-02-10T00:59:42.457Z,0.51
2018-02-10T01:02:10.044Z,0.50
2018-02-10T01:04:37.651Z,0.45
2018-02-10T01:07:05.211Z,0.39
2018-02-10T01:09:32.776Z,0.25
2018-02-10T01:12:00.389Z,0.14
2018-02-10T01:14:27.970Z,0.14
2018-02-10T01:16:55.539Z,0.22
2018-02-10T01:19:23.141Z,0.23
2018-02-10T01:21:50.728Z,0.23
2018-02-10T01:24:18.295Z,0.31
2018-02-10T01:26:46.120Z,0.27
2018-02-10T01:29:13.685Z,0.34
2018-02-10T01:31:41.436Z,0.31
2018-02-10T01:34:09.055Z,0.35
2018-02-10T01:36:36.766Z,0.37
2018-02-10T01:39:04.397Z,0.38
2018-02-10T01:41:32.002Z,0.28
2018-02-10T01:43:59.574Z,0.24
2018-02-10T01:46:27.228Z,0.18
2018-02-10T01:48:54.835Z,0.13
2018-02-10T01:51:22.413Z,0.20
2018-02-10T01:53:49.992Z,0.25
2018-02-10T01:56:17.605Z,0.29
2018-02-10T01:58:45.171Z,0.22
2018-02-10T02:01:12.976Z,0.15
2018-02-10T02:03:40.576Z,0.06
2018-02-10T02:06:08.147Z,0.02
2018-02-10T02:08:35.708Z,0.11
2018-02-10T02:11:03.329Z,0.15
2018-02-10T02:13:31.085Z,0.21
2018-02-10T02:15:58.661Z,0.23
2018-02-10T02:18:32.347Z,0.39
2018-02-10T02:20:59.909Z,0.41
2018-02-10T02:23:27.689Z,0.35
2018-02-10T02:25:55.277Z,0.27
2018-02-10T02:28:22.993Z,0.21
2018-02-10T02:30:50.559Z,0.28
2018-02-10T02:33:18.329Z,0.25
2018-02-10T02:35:45.905Z,0.18
2018-02-10T02:38:13.468Z,0.18
2018-02-10T02:40:41.084Z,0.30
2018-02-10T02:43:08.781Z,0.43
2018-02-10T02:45:36.429Z,0.42
2018-02-10T02:48:04.275Z,0.57
2018-02-10T02:50:31.844Z,0.63
2018-02-10T02:52:59.411Z,0.56
2018-02-10T02:55:27.087Z,0.45
2018-02-10T02:57:54.741Z,0.40
2018-02-10T03:00:22.398Z,0.32
2018-02-10T03:02:50.079Z,0.30
2018-02-10T03:05:17.641Z,0.28
2018-02-10T03:07:45.203Z,0.22
2018-02-10T03:10:12.790Z,0.26
2018-02-10T03:12:40.516Z,0.35
2018-02-10T03:15:08.185Z,0.30
2018-02-10T03:17:35.792Z,0.22
2018-02-10T03:20:03.361Z,0.12
2018-02-10T03:22:30.922Z,0.12
2018-02-10T03:24:58.519Z,0.19
2018-02-10T03:27:26.085Z,0.23
2018-02-10T03:29:53.633Z,0.23
2018-02-10T03:32:21.401Z,0.26
2018-02-10T03:34:49.060Z,0.30
2018-02-10T03:37:16.617Z,0.33
2018-02-10T03:39:44.383Z,0.25
2018-02-10T03:42:12.012Z,0.30
2018-02-10T03:44:39.621Z,0.38
2018-02-10T03:47:07.236Z,0.38
2018-02-10T03:49:34.810Z,0.41
2018-02-10T03:52:02.407Z,0.46
2018-02-10T03:54:30.008Z,0.47
2018-02-10T03:56:57.594Z,0.51
2018-02-10T03:59:25.171Z,0.60
2018-02-10T04:01:52.931Z,0.63
2018-02-10T04:04:20.610Z,0.76
2018-02-10T04:06:48.183Z,0.72
2018-02-10T04:09:15.777Z,0.67
2018-02-10T04:11:43.354Z,0.66
2018-02-10T04:14:11.040Z,0.63
2018-02-10T04:16:38.650Z,0.68
2018-02-10T04:19:06.212Z,0.67
2018-02-10T04:21:33.873Z,0.71
2018-02-10T04:24:01.500Z,0.73
2018-02-10T04:26:29.113Z,0.67
2018-02-10T04:28:56.830Z,0.62
2018-02-10T04:31:24.427Z,0.69
2018-02-10T04:33:52.007Z,0.75
2018-02-10T04:36:19.593Z,0.74
2018-02-10T04:38:47.190Z,0.74
2018-02-10T04:41:14.765Z,0.70
2018-02-10T04:43:42.335Z,0.74
2018-02-10T04:46:10.034Z,0.85
2018-02-10T04:48:37.918Z,0.82
2018-02-10T04:51:05.573Z,0.78
2018-02-10T04:53:33.180Z,0.82
2018-02-10T04:56:00.846Z,0.66
2018-02-10T04:58:28.426Z,0.68
2018-02-10T05:00:56.067Z,0.68
2018-02-10T05:03:24.024Z,0.76
2018-02-10T05:05:51.800Z,0.75
2018-02-10T05:08:19.617Z,0.76
2018-02-10T05:10:47.234Z,0.73
2018-02-10T05:13:14.793Z,0.75
2018-02-10T05:15:42.358Z,0.76
2018-02-10T05:18:09.937Z,0.85
2018-02-10T05:20:37.502Z,0.83
2018-02-10T05:23:05.117Z,0.91
2018-02-10T05:25:32.704Z,0.89
2018-02-10T05:28:00.343Z,0.90
2018-02-10T05:30:27.955Z,0.87
2018-02-10T05:32:55.502Z,1.00
2018-02-10T05:35:23.402Z,1.10
2018-02-10T05:37:50.996Z,1.18
2018-02-10T05:40:18.566Z,1.14
2018-02-10T05:42:46.277Z,1.17
2018-02-10T05:45:13.889Z,1.20
2018-02-10T05:47:41.441Z,1.27
2018-02-10T05:50:09.008Z,1.26
2018-02-10T05:52:36.712Z,1.21
2018-02-10T05:55:04.292Z,1.25
2018-02-10T05:57:31.871Z,1.32
2018-02-10T05:59:59.463Z,1.42
2018-02-10T06:02:27.073Z,1.64
2018-02-10T06:04:54.643Z,1.80
2018-02-10T06:07:22.480Z,1.98
2018-02-10T06:09:50.047Z,2.02
2018-02-10T06:12:17.612Z,2.06
2018-02-10T06:14:45.228Z,2.01
2018-02-10T06:17:12.929Z,1.95
2018-02-10T06:19:40.593Z,1.93
2018-02-10T06:22:08.186Z,1.99
2018-02-10T06:24:35.790Z,2.04
2018-02-10T06:27:03.338Z,2.04
2018-02-10T06:29:30.967Z,2.16
2018-02-10T06:31:58.532Z,2.25
2018-02-10T06:34:26.222Z,2.31
2018-02-10T06:36:53.909Z,2.38
2018-02-10T06:39:21.481Z,2.52
2018-02-10T06:41:49.155Z,2.67
2018-02-10T06:44:16.803Z,2.98
2018-02-10T06:46:44.383Z,3.33
2018-02-10T06:49:11.956Z,3.64
2018-02-10T06:51:39.567Z,3.81
2018-02-10T06:54:07.257Z,4.01
2018-02-10T06:56:34.833Z,4.04
2018-02-10T06:59:02.584Z,3.82
2018-02-10T07:01:30.166Z,3.74
2018-02-10T07:03:57.753Z,3.58
2018-02-10T07:06:25.377Z,3.50
2018-02-10T07:08:53.031Z,3.47
2018-02-10T07:11:20.695Z,3.50
2018-02-10T07:13:48.356Z,3.64
2018-02-10T07:16:16.013Z,3.76
2018-02-10T07:18:43.670Z,3.90
2018-02-10T07:21:11.306Z,3.91
2018-02-10T07:23:38.871Z,4.01
2018-02-10T07:26:06.443Z,4.20
2018-02-10T07:28:34.067Z,4.42
2018-02-10T07:31:01.649Z,4.44
2018-02-10T07:33:29.219Z,4.48
2018-02-10T07:35:56.831Z,4.63
2018-02-10T07:38:24.396Z,4.54
2018-02-10T07:40:51.962Z,4.61
2018-02-10T07:43:19.671Z,4.83
2018-02-10T07:45:47.244Z,5.05
2018-02-10T07:48:14.828Z,5.11
2018-02-10T07:50:43.476Z,5.16
2018-02-10T07:53:11.158Z,5.14
2018-02-10T07:55:39.131Z,5.22
2018-02-10T07:58:06.842Z,5.04
2018-02-10T08:00:34.787Z,5.21
2018-02-10T08:03:02.396Z,5.41
2018-02-10T08:05:30.033Z,5.60
2018-02-10T08:07:57.617Z,5.71
2018-02-10T08:10:25.201Z,5.76
2018-02-10T08:12:52.806Z,6.08
2018-02-10T08:15:20.383Z,6.59
2018-02-10T08:17:48.246Z,7.29
2018-02-10T08:20:15.852Z,7.83
2018-02-10T08:22:43.467Z,8.45
2018-02-10T08:25:11.175Z,8.97
2018-02-10T08:27:38.787Z,9.50
2018-02-10T08:30:06.366Z,10.21
2018-02-10T08:32:33.944Z,10.81
2018-02-10T08:35:01.811Z,10.92
2018-02-10T08:37:29.405Z,10.58
2018-02-10T08:39:56.992Z,10.41
2018-02-10T08:42:24.602Z,10.68
2018-02-10T08:44:52.204Z,11.16
2018-02-10T08:47:19.994Z,11.67
2018-02-10T08:49:47.737Z,12.00
2018-02-10T08:52:15.319Z,11.73
2018-02-10T08:54:43.195Z,12.01
2018-02-10T08:57:10.850Z,12.23
2018-02-10T08:59:38.621Z,12.27
2018-02-10T09:02:06.303Z,12.98
2018-02-10T09:04:33.912Z,13.39
2018-02-10T09:07:01.781Z,13.78
2018-02-10T09:09:29.701Z,13.93
2018-02-10T09:11:57.409Z,13.73
2018-02-10T09:14:24.991Z,14.95
2018-02-10T09:16:52.576Z,15.12
2018-02-10T09:19:20.204Z,15.69
2018-02-10T09:21:47.800Z,16.22
2018-02-10T09:24:15.478Z,15.95
2018-02-10T09:26:43.133Z,15.44
2018-02-10T09:29:10.727Z,14.79
2018-02-10T09:31:38.312Z,14.09
2018-02-10T09:34:05.936Z,13.81
2018-02-10T09:36:33.523Z,13.77
2018-02-10T09:39:01.107Z,13.42
2018-02-10T09:41:28.905Z,13.12
2018-02-10T09:43:58.178Z,13.43
2018-02-10T09:46:26.148Z,13.46
2018-02-10T09:48:53.754Z,12.85
2018-02-10T09:51:21.505Z,13.21
2018-02-10T09:53:49.348Z,13.20
2018-02-10T09:56:17.025Z,13.23
2018-02-10T09:58:44.701Z,12.73
2018-02-10T10:01:12.278Z,12.87
2018-02-10T10:03:39.892Z,12.52
2018-02-10T10:06:07.462Z,12.40
2018-02-10T10:08:35.042Z,12.69
2018-02-10T10:11:02.804Z,12.81
2018-02-10T10:13:30.371Z,13.05
2018-02-10T10:15:57.939Z,13.12
2018-02-10T10:18:25.577Z,13.44
2018-02-10T10:20:53.358Z,13.66
2018-02-10T10:23:20.975Z,13.49
2018-02-10T10:25:49.380Z,13.28
2018-02-10T10:28:17.046Z,12.31
2018-02-10T10:30:44.646Z,12.03
2018-02-10T10:33:12.295Z,11.56
2018-02-10T10:35:39.862Z,11.73
2018-02-10T10:38:07.489Z,11.39
2018-02-10T10:40:35.112Z,11.10
2018-02-10T10:43:03.030Z,11.32
2018-02-10T10:45:30.595Z,11.42
2018-02-10T10:47:58.635Z,11.17
2018-02-10T10:50:26.426Z,10.69
2018-02-10T10:52:54.003Z,11.04
2018-02-10T10:55:21.591Z,10.84
2018-02-10T10:57:49.220Z,10.95
2018-02-10T11:00:18.711Z,10.70
2018-02-10T11:02:46.308Z,10.40
2018-02-10T11:05:14.017Z,10.73
2018-02-10T11:07:41.904Z,10.77
2018-02-10T11:10:09.496Z,10.83
2018-02-10T11:12:37.125Z,10.90
2018-02-10T11:15:04.712Z,10.83
2018-02-10T11:17:32.299Z,10.90
2018-02-10T11:20:00.085Z,10.93
2018-02-10T11:22:27.667Z,10.87
2018-02-10T11:24:55.239Z,10.82
2018-02-10T11:27:22.856Z,10.93
2018-02-10T11:29:50.423Z,10.62
2018-02-10T11:32:17.999Z,10.56
2018-02-10T11:34:45.652Z,10.34
2018-02-10T11:37:13.331Z,10.23
2018-02-10T11:39:41.003Z,10.76
2018-02-10T11:42:08.626Z,10.97
2018-02-10T11:44:36.322Z,11.30
2018-02-10T11:47:03.986Z,11.36
2018-02-10T11:49:31.586Z,11.36
2018-02-10T11:51:59.302Z,11.37
2018-02-10T11:54:26.891Z,11.45
2018-02-10T11:56:54.585Z,11.59
2018-02-10T11:59:22.224Z,11.73
2018-02-10T12:01:49.834Z,11.92
2018-02-10T12:04:17.430Z,11.64
2018-02-10T12:06:45.138Z,11.36
2018-02-10T12:09:12.688Z,11.30
2018-02-10T12:11:40.406Z,11.36
2018-02-10T12:14:08.056Z,11.66
2018-02-10T12:16:35.633Z,11.67
2018-02-10T12:19:03.267Z,11.37
2018-02-10T12:21:30.844Z,11.33
2018-02-10T12:23:58.434Z,11.51
2018-02-10T12:26:26.048Z,11.58
2018-02-10T12:28:54.094Z,11.23
2018-02-10T12:31:21.691Z,10.93
2018-02-10T12:33:49.356Z,11.11
2018-02-10T12:36:17.031Z,11.26
2018-02-10T12:38:44.670Z,11.36
2018-02-10T12:41:12.275Z,11.56
2018-02-10T12:43:39.832Z,11.95
2018-02-10T12:46:07.658Z,11.49
2018-02-10T12:48:40.887Z,11.84
2018-02-10T12:51:08.526Z,12.05
2018-02-10T12:53:36.129Z,11.58
2018-02-10T12:56:03.751Z,11.02
2018-02-10T12:58:31.358Z,11.13
2018-02-10T13:00:59.999Z,10.73
2018-02-10T13:03:27.676Z,10.49
2018-02-10T13:05:55.337Z,10.48
2018-02-10T13:08:22.937Z,10.58
2018-02-10T13:10:50.544Z,10.64
2018-02-10T13:13:18.152Z,10.85
2018-02-10T13:15:45.713Z,11.08
2018-02-10T13:18:13.788Z,11.07
2018-02-10T13:20:41.378Z,11.37
2018-02-10T13:23:09.152Z,11.42
2018-02-10T13:25:36.745Z,11.40
2018-02-10T13:28:04.345Z,11.26
2018-02-10T13:30:31.938Z,11.18
2018-02-10T13:32:59.511Z,11.14
2018-02-10T13:35:27.105Z,11.24
2018-02-10T13:37:54.688Z,11.25
2018-02-10T13:40:22.386Z,11.23
2018-02-10T13:42:49.946Z,11.20
2018-02-10T13:45:17.717Z,10.93
2018-02-10T13:47:45.375Z,10.81
2018-02-10T13:50:12.935Z,10.62
2018-02-10T13:52:40.502Z,10.53
2018-02-10T13:55:08.112Z,10.55
2018-02-10T13:57:35.684Z,10.42
2018-02-10T14:00:03.242Z,10.66
2018-02-10T14:02:30.838Z,10.56
2018-02-10T14:04:59.273Z,10.51
2018-02-10T14:07:26.826Z,10.38
2018-02-10T14:09:54.459Z,10.17
2018-02-10T14:12:22.035Z,10.11
2018-02-10T14:14:49.661Z,9.97
2018-02-10T14:17:17.245Z,9.95
2018-02-10T14:19:44.797Z,9.94
2018-02-10T14:22:12.338Z,9.99
2018-02-10T14:24:39.913Z,9.87
2018-02-10T14:27:07.475Z,9.87
2018-02-10T14:29:35.028Z,9.86
2018-02-10T14:32:02.619Z,9.84
2018-02-10T14:34:30.194Z,9.88
2018-02-10T14:36:57.756Z,9.88
2018-02-10T14:39:25.473Z,9.80
2018-02-10T14:41:53.046Z,9.72
2018-02-10T14:44:20.790Z,9.68
2018-02-10T14:46:48.385Z,9.77
2018-02-10T14:49:15.952Z,9.65
2018-02-10T14:51:43.514Z,9.50
2018-02-10T14:54:11.116Z,9.55
2018-02-10T14:56:38.698Z,9.35
2018-02-10T14:59:06.339Z,9.29
2018-02-10T15:01:33.939Z,9.22
2018-02-10T15:04:01.489Z,9.04
2018-02-10T15:06:29.069Z,8.93
2018-02-10T15:08:56.695Z,8.78
2018-02-10T15:11:24.284Z,8.73
2018-02-10T15:13:51.847Z,8.55
2018-02-10T15:16:19.464Z,8.48
2018-02-10T15:18:47.026Z,8.46
2018-02-10T15:21:14.583Z,8.45
2018-02-10T15:23:42.176Z,8.37
2018-02-10T15:26:09.771Z,8.32
2018-02-10T15:28:37.325Z,8.25
2018-02-10T15:31:16.823Z,8.04
2018-02-10T15:33:56.156Z,7.92
2018-02-10T15:36:23.802Z,7.74
2018-02-10T15:38:51.387Z,7.67
2018-02-10T15:41:18.967Z,7.67
2018-02-10T15:43:46.601Z,7.65
2018-02-10T15:46:14.178Z,7.60
2018-02-10T15:48:41.926Z,7.66
2018-02-10T15:51:09.542Z,7.69
2018-02-10T15:53:37.110Z,7.65
2018-02-10T15:56:04.913Z,7.65
2018-02-10T15:58:32.502Z,7.54
2018-02-10T16:01:00.217Z,7.49
2018-02-10T16:03:27.804Z,7.29
2018-02-10T16:05:55.560Z,7.30
2018-02-10T16:08:23.138Z,7.29
2018-02-10T16:10:50.699Z,7.34
2018-02-10T16:13:18.297Z,7.37
2018-02-10T16:15:45.871Z,7.28
2018-02-10T16:18:13.449Z,7.26
2018-02-10T16:20:41.056Z,7.25
2018-02-10T16:23:08.627Z,7.21
2018-02-10T16:25:36.456Z,7.22
2018-02-10T16:28:04.069Z,7.25
2018-02-10T16:30:31.776Z,7.24
2018-02-10T16:32:59.375Z,7.06
2018-02-10T16:35:27.094Z,7.10
2018-02-10T16:37:54.673Z,7.04
2018-02-10T16:40:22.415Z,7.05
2018-02-10T16:42:50.024Z,7.04
2018-02-10T16:45:17.603Z,7.03
2018-02-10T16:47:45.163Z,6.99
2018-02-10T16:50:12.765Z,7.01
2018-02-10T16:52:40.329Z,6.98
2018-02-10T16:55:07.889Z,6.93
2018-02-10T16:57:35.504Z,6.88
2018-02-10T17:00:03.105Z,6.91
2018-02-10T17:02:30.966Z,6.94
2018-02-10T17:04:58.597Z,6.94
2018-02-10T17:07:26.167Z,6.94
2018-02-10T17:09:53.749Z,6.90
2018-02-10T17:12:21.353Z,6.88
2018-02-10T17:14:48.919Z,6.87
2018-02-10T17:17:16.476Z,6.89
2018-02-10T17:19:44.176Z,6.91
2018-02-10T17:22:11.865Z,6.86
2018-02-10T17:24:39.431Z,6.86
2018-02-10T17:27:07.045Z,6.90
2018-02-10T17:29:34.640Z,6.94
2018-02-10T17:32:02.231Z,7.01
2018-02-10T17:34:29.837Z,6.99
2018-02-10T17:36:57.424Z,7.05
2018-02-10T17:39:25.039Z,7.03
2018-02-10T17:41:52.661Z,7.00
2018-02-10T17:44:20.238Z,6.95
2018-02-10T17:46:47.865Z,6.99
2018-02-10T17:49:15.476Z,6.98
2018-02-10T17:51:43.059Z,6.97
2018-02-10T17:54:10.619Z,7.00
2018-02-10T17:56:38.240Z,6.92
2018-02-10T17:59:05.837Z,6.83
2018-02-10T18:01:33.417Z,6.84
2018-02-10T18:04:01.046Z,6.84
2018-02-10T18:06:28.762Z,6.88
2018-02-10T18:08:56.394Z,6.85
2018-02-10T18:11:24.010Z,6.87
2018-02-10T18:13:51.749Z,6.89
2018-02-10T18:16:19.457Z,6.93
2018-02-10T18:18:47.052Z,6.95
2018-02-10T18:21:14.627Z,7.05
2018-02-10T18:23:42.203Z,7.04
2018-02-10T18:26:09.818Z,7.10
2018-02-10T18:28:37.397Z,7.11
2018-02-10T18:31:04.977Z,7.18
2018-02-10T18:33:33.127Z,7.15
2018-02-10T18:36:00.707Z,7.14
2018-02-10T18:38:28.273Z,7.15
2018-02-10T18:40:56.012Z,7.09
2018-02-10T18:43:23.577Z,7.09
2018-02-10T18:45:51.340Z,7.08
2018-02-10T18:48:19.018Z,7.10
2018-02-10T18:50:46.667Z,7.18
2018-02-10T18:53:14.245Z,7.16
2018-02-10T18:55:41.834Z,7.05
2018-02-10T18:58:09.412Z,7.15
2018-02-10T19:00:36.986Z,7.08
2018-02-10T19:03:04.610Z,7.08
2018-02-10T19:05:32.176Z,7.13
2018-02-10T19:07:59.735Z,7.08
2018-02-10T19:10:27.421Z,7.12
2018-02-10T19:12:54.983Z,7.11
2018-02-10T19:15:22.545Z,7.12
2018-02-10T19:17:50.140Z,7.09
2018-02-10T19:20:17.712Z,7.15
2018-02-10T19:22:45.257Z,7.16
2018-02-10T19:25:12.881Z,7.10
2018-02-10T19:27:40.595Z,7.16
2018-02-10T19:30:08.190Z,7.11
2018-02-10T19:32:35.818Z,7.09
2018-02-10T19:35:03.410Z,7.01
2018-02-10T19:37:30.972Z,7.12
2018-02-10T19:39:58.566Z,7.08
2018-02-10T19:42:26.119Z,7.11
2018-02-10T19:44:53.768Z,7.13
2018-02-10T19:47:21.345Z,7.11
2018-02-10T19:49:48.910Z,7.14
2018-02-10T19:52:16.500Z,7.12
2018-02-10T19:54:44.099Z,7.15
2018-02-10T19:57:11.738Z,7.12
2018-02-10T19:59:39.308Z,7.05
2018-02-10T20:02:06.939Z,7.09
2018-02-10T20:04:34.561Z,7.12
2018-02-10T20:07:02.138Z,7.12
2018-02-10T20:09:29.753Z,7.05
2018-02-10T20:11:57.337Z,6.98
2018-02-10T20:14:24.948Z,7.15
2018-02-10T20:16:52.546Z,7.14
2018-02-10T20:19:21.124Z,7.13
2018-02-10T20:21:48.788Z,7.01
2018-02-10T20:24:16.373Z,6.96
2018-02-10T20:26:43.973Z,6.80
2018-02-10T20:29:11.528Z,6.73
2018-02-10T20:31:40.040Z,6.63
2018-02-10T20:34:07.696Z,6.52
2018-02-10T20:36:35.266Z,6.46
2018-02-10T20:39:02.891Z,6.38
2018-02-10T20:41:30.447Z,6.29
2018-02-10T20:43:58.007Z,6.25
2018-02-10T20:46:25.643Z,6.21
2018-02-10T20:48:53.205Z,6.10
2018-02-10T20:51:20.755Z,6.09
2018-02-10T20:53:48.356Z,6.13
2018-02-10T20:56:16.049Z,6.06
2018-02-10T20:58:43.606Z,6.04
2018-02-10T21:01:11.208Z,5.98
2018-02-10T21:03:38.755Z,5.94
2018-02-10T21:06:06.320Z,5.89
2018-02-10T21:08:33.924Z,5.90
2018-02-10T21:11:01.489Z,5.86
2018-02-10T21:13:29.051Z,5.84
2018-02-10T21:15:56.655Z,5.84
2018-02-10T21:18:24.292Z,5.80
2018-02-10T21:20:51.855Z,5.78
2018-02-10T21:23:19.461Z,5.81
2018-02-10T21:25:47.678Z,5.75
2018-02-10T21:28:15.283Z,5.69
2018-02-10T21:30:42.837Z,5.73
2018-02-10T21:33:16.302Z,5.81
2018-02-10T21:35:43.859Z,5.74
2018-02-10T21:38:11.404Z,5.80
2018-02-10T21:40:38.999Z,5.76
2018-02-10T21:43:06.563Z,5.79
2018-02-10T21:45:34.155Z,5.72
2018-02-10T21:48:01.743Z,5.60
2018-02-10T21:50:29.324Z,5.58
2018-02-10T21:52:56.884Z,5.51
2018-02-10T21:55:24.493Z,5.46
2018-02-10T21:57:52.058Z,5.46
2018-02-10T22:00:19.645Z,5.41
2018-02-10T22:02:47.248Z,5.33
2018-02-10T22:05:14.807Z,5.26
2018-02-10T22:07:42.357Z,5.21
2018-02-10T22:10:09.932Z,5.17
2018-02-10T22:12:37.499Z,5.16
2018-02-10T22:15:05.110Z,5.15
2018-02-10T22:17:32.720Z,5.10
2018-02-10T22:20:00.297Z,5.05
2018-02-10T22:22:27.869Z,5.04
2018-02-10T22:24:55.456Z,5.03
2018-02-10T22:27:23.024Z,5.06
2018-02-10T22:29:50.583Z,5.05
2018-02-10T22:32:18.185Z,5.05
2018-02-10T22:34:45.772Z,4.99
2018-02-10T22:37:13.329Z,4.90
2018-02-10T22:39:40.931Z,4.89
2018-02-10T22:42:08.511Z,4.76
2018-02-10T22:44:36.073Z,4.77
2018-02-10T22:47:03.680Z,4.71
2018-02-10T22:49:31.245Z,4.72
2018-02-10T22:51:58.802Z,4.60
2018-02-10T22:54:26.411Z,4.48
2018-02-10T22:56:53.974Z,4.50
2018-02-10T22:59:21.526Z,4.53
2018-02-10T23:01:49.133Z,4.54
2018-02-10T23:04:16.712Z,4.35
2018-02-10T23:06:44.277Z,4.24
2018-02-10T23:09:11.881Z,4.30
2018-02-10T23:11:39.456Z,4.32
2018-02-10T23:14:07.026Z,4.37
2018-02-10T23:16:34.625Z,4.35
2018-02-10T23:19:02.202Z,4.36
2018-02-10T23:21:29.754Z,4.33
2018-02-10T23:23:57.438Z,4.23
2018-02-10T23:26:25.038Z,4.23
2018-02-10T23:28:52.605Z,4.23
2018-02-10T23:31:20.226Z,4.21
2018-02-10T23:33:47.779Z,4.13
2018-02-10T23:36:15.331Z,4.14
2018-02-10T23:38:42.928Z,4.23
2018-02-10T23:41:10.483Z,4.25
2018-02-10T23:43:38.030Z,4.30
2018-02-10T23:46:05.619Z,4.34
2018-02-10T23:48:33.154Z,4.35
2018-02-10T23:51:00.720Z,4.43
2018-02-10T23:53:28.423Z,4.50
2018-02-10T23:55:55.988Z,4.61
2018-02-10T23:58:23.547Z,4.60
